Time;durP1;ratioP1;P1;durP2;ratioP2;P2;SDS_P1;SDS_P2;PMS_P1;PMS_P2;Temp;Humidity;BMP_temperature;BMP_pressure;BME280_temperature;BME280_humidity;BME280_pressure;Samples;Min_cycle;Max_cycle;Signal;HPM_P1;HPM_P2
2021/12/19 00:00:13;;;;;;;33.95;22.65;;;22.40;69.10;;;;;;6201960;28;90061;-62
2021/12/19 00:03:34;;;;;;;29.08;21.58;;;22.40;67.00;;;;;;6204250;28;89286;-63
2021/12/19 00:09:55;;;;;;;33.97;21.13;;;22.40;67.40;;;;;;6205740;28;87016;-62
2021/12/19 00:12:59;;;;;;;29.25;19.92;;;22.40;67.90;;;;;;6208946;28;89031;-62
2021/12/19 00:16:01;;;;;;;26.95;19.73;;;22.40;68.20;;;;;;6204423;28;89507;-61
2021/12/19 00:19:03;;;;;;;23.90;18.98;;;22.40;68.40;;;;;;6204741;28;89336;-62
2021/12/19 00:22:05;;;;;;;29.70;20.38;;;22.40;68.70;;;;;;6204073;28;87555;-62
2021/12/19 00:25:08;;;;;;;24.15;17.92;;;22.40;68.90;;;;;;6208682;28;87990;-62
2021/12/19 00:28:11;;;;;;;23.98;18.35;;;22.40;69.10;;;;;;6212893;28;89039;-62
2021/12/19 00:31:13;;;;;;;26.77;19.13;;;22.40;69.10;;;;;;6203035;28;90048;-62
2021/12/19 00:34:16;;;;;;;25.25;19.30;;;22.40;69.30;;;;;;6201042;28;88973;-62
2021/12/19 00:37:19;;;;;;;22.38;17.67;;;22.40;69.40;;;;;;6201706;28;88954;-62
2021/12/19 00:40:22;;;;;;;23.90;18.23;;;22.40;69.60;;;;;;6202925;28;89001;-62
2021/12/19 00:43:34;;;;;;;20.92;16.83;;;22.40;69.70;;;;;;6209285;28;88986;-62
2021/12/19 00:46:46;;;;;;;20.70;17.13;;;22.40;69.70;;;;;;6195208;28;89286;-62
2021/12/19 00:49:48;;;;;;;20.40;17.00;;;22.40;69.90;;;;;;6199083;28;89357;-62
2021/12/19 00:52:51;;;;;;;21.98;16.98;;;22.40;70.00;;;;;;6204024;28;88340;-62
2021/12/19 00:59:14;;;;;;;18.98;15.88;;;22.40;70.30;;;;;;6194309;28;87211;-62
2021/12/19 01:02:16;;;;;;;21.13;16.88;;;22.30;70.30;;;;;;6208736;28;89990;-61
2021/12/19 01:05:18;;;;;;;19.45;16.00;;;22.30;70.20;;;;;;6211679;28;89110;-62
2021/12/19 01:08:22;;;;;;;18.38;15.65;;;22.30;70.20;;;;;;6206436;28;89009;-62
2021/12/19 01:11:24;;;;;;;18.63;15.60;;;22.30;70.30;;;;;;6182417;28;89008;-62
2021/12/19 01:14:28;;;;;;;20.20;16.27;;;22.30;70.30;;;;;;6203505;28;88110;-62
2021/12/19 01:17:30;;;;;;;18.85;14.75;;;22.30;70.30;;;;;;6192816;28;88117;-62
2021/12/19 01:20:34;;;;;;;18.52;15.20;;;22.30;70.40;;;;;;6206508;28;89255;-62
2021/12/19 01:23:37;;;;;;;16.75;14.95;;;22.30;70.40;;;;;;6192592;28;88409;-62
2021/12/19 01:26:42;;;;;;;16.00;14.25;;;22.30;70.50;;;;;;6207199;28;89129;-62
2021/12/19 01:29:45;;;;;;;16.75;13.68;;;22.30;70.40;;;;;;6196063;28;89241;-62
2021/12/19 01:32:47;;;;;;;15.90;13.93;;;22.30;70.50;;;;;;6210254;28;90033;-62
2021/12/19 01:35:49;;;;;;;17.65;14.15;;;22.20;70.50;;;;;;6209518;28;89163;-62
2021/12/19 01:42:12;;;;;;;16.92;13.35;;;22.30;70.60;;;;;;6199393;28;88142;-62
2021/12/19 01:45:22;;;;;;;15.10;12.60;;;22.30;70.60;;;;;;6208569;28;89378;-62
2021/12/19 01:48:24;;;;;;;13.95;12.27;;;22.20;70.60;;;;;;6195504;28;89188;-62
2021/12/19 01:51:26;;;;;;;14.50;12.73;;;22.20;70.60;;;;;;6202653;28;89329;-62
2021/12/19 01:54:28;;;;;;;14.25;12.27;;;22.20;70.60;;;;;;6202366;28;88824;-62
2021/12/19 01:57:30;;;;;;;14.02;11.85;;;22.20;70.70;;;;;;6208207;28;89179;-62
2021/12/19 02:00:38;;;;;;;13.40;11.57;;;22.20;70.70;;;;;;6211385;28;87930;-62
2021/12/19 02:03:40;;;;;;;12.88;10.93;;;22.20;70.80;;;;;;6195390;28;90085;-62
2021/12/19 02:10:03;;;;;;;13.40;11.40;;;22.10;70.60;;;;;;6208841;28;87028;-62
2021/12/19 02:13:07;;;;;;;12.88;11.30;;;22.20;70.70;;;;;;6208155;28;89086;-62
2021/12/19 02:16:11;;;;;;;12.13;10.32;;;22.20;70.70;;;;;;6189778;28;89060;-62
2021/12/19 02:19:14;;;;;;;12.43;10.77;;;22.20;70.60;;;;;;6201021;28;89580;-63
2021/12/19 02:22:17;;;;;;;12.52;10.13;;;22.20;70.70;;;;;;6211090;28;89074;-62
2021/12/19 02:25:19;;;;;;;12.10;10.63;;;22.20;70.60;;;;;;6196279;28;88338;-63
2021/12/19 02:28:22;;;;;;;11.80;9.95;;;22.20;70.70;;;;;;6205971;28;87921;-62
2021/12/19 02:31:27;;;;;;;10.80;9.70;;;22.20;70.80;;;;;;6209464;28;88227;-62
2021/12/19 02:34:32;;;;;;;11.63;10.43;;;22.10;70.60;;;;;;6202342;28;90010;-62
2021/12/19 02:50:54;;;;;;;10.07;9.18;;;22.10;70.90;;;;;;6189934;28;87764;-60
2021/12/19 02:54:00;;;;;;;10.25;9.20;;;22.10;70.80;;;;;;6205339;28;89263;-60
2021/12/19 02:57:02;;;;;;;9.73;8.82;;;22.10;70.90;;;;;;6194354;28;88731;-60
2021/12/19 03:00:09;;;;;;;9.73;8.80;;;22.10;70.90;;;;;;6208242;28;89170;-60
2021/12/19 03:03:11;;;;;;;10.98;8.63;;;22.00;71.00;;;;;;6207457;28;89073;-60
2021/12/19 03:06:13;;;;;;;9.85;8.85;;;22.10;71.00;;;;;;6205327;28;90087;-60
2021/12/19 03:09:32;;;;;;;9.68;8.60;;;22.00;70.90;;;;;;6209214;28;89394;-60
2021/12/19 03:12:48;;;;;;;9.55;8.55;;;22.00;71.00;;;;;;6208179;28;89287;-61
2021/12/19 03:19:10;;;;;;;9.23;8.18;;;22.00;71.00;;;;;;6197613;28;87087;-61
2021/12/19 03:22:12;;;;;;;9.13;8.13;;;22.00;71.00;;;;;;6193791;28;89298;-61
2021/12/19 03:25:16;;;;;;;9.07;8.18;;;22.00;71.00;;;;;;6209529;28;89071;-61
2021/12/19 03:28:18;;;;;;;9.13;8.20;;;22.00;71.00;;;;;;6207870;28;88556;-60
2021/12/19 03:31:20;;;;;;;8.80;7.90;;;22.00;71.00;;;;;;6199551;28;89080;-61
2021/12/19 03:34:22;;;;;;;8.18;7.38;;;22.00;71.00;;;;;;6219907;28;89386;-61
2021/12/19 03:37:25;;;;;;;8.80;7.90;;;22.00;70.90;;;;;;6207845;28;89075;-61
2021/12/19 03:40:36;;;;;;;8.25;7.43;;;22.00;71.00;;;;;;6194306;28;89299;-61
2021/12/19 03:43:38;;;;;;;7.50;6.82;;;22.00;70.90;;;;;;6210241;28;89580;-61
2021/12/19 03:46:40;;;;;;;8.05;7.25;;;22.00;70.90;;;;;;6206301;28;89074;-61
2021/12/19 03:49:42;;;;;;;7.95;6.93;;;22.00;70.90;;;;;;6189598;28;89055;-61
2021/12/19 03:52:45;;;;;;;8.27;7.38;;;22.00;71.00;;;;;;6196604;28;89084;-61
2021/12/19 03:55:50;;;;;;;7.63;6.90;;;22.00;71.00;;;;;;6206909;28;89141;-61
2021/12/19 03:58:53;;;;;;;7.85;7.05;;;22.00;71.00;;;;;;6199139;28;86291;-61
2021/12/19 04:01:55;;;;;;;7.55;6.82;;;22.00;71.00;;;;;;6208069;28;87996;-60
2021/12/19 04:04:59;;;;;;;8.07;6.80;;;22.00;71.00;;;;;;6193584;28;87752;-61
2021/12/19 04:08:01;;;;;;;7.72;7.05;;;22.00;71.00;;;;;;6195275;28;90188;-61
2021/12/19 04:11:05;;;;;;;7.45;6.75;;;22.00;71.00;;;;;;6195460;28;89073;-61
2021/12/19 04:14:07;;;;;;;7.25;6.55;;;21.90;71.00;;;;;;6207319;28;88990;-61
2021/12/19 04:17:09;;;;;;;8.40;6.82;;;21.90;71.10;;;;;;6207531;28;89088;-61
2021/12/19 04:20:15;;;;;;;6.93;6.22;;;21.90;71.10;;;;;;6220201;28;88011;-61
2021/12/19 04:23:17;;;;;;;6.88;6.18;;;21.90;71.20;;;;;;6207472;28;89143;-60
2021/12/19 04:26:20;;;;;;;6.57;5.93;;;21.90;71.30;;;;;;6220479;28;89063;-61
2021/12/19 04:29:23;;;;;;;6.75;6.15;;;21.90;71.30;;;;;;6208410;28;87547;-60
2021/12/19 04:32:31;;;;;;;6.95;6.25;;;21.90;71.40;;;;;;6207411;28;89051;-61
2021/12/19 04:35:36;;;;;;;7.43;6.53;;;21.90;71.40;;;;;;6206312;28;89142;-60
2021/12/19 04:52:43;;;;;;;6.07;5.47;;;21.90;71.30;;;;;;6207972;28;87226;-61
2021/12/19 05:02:26;;;;;;;6.07;5.47;;;21.90;71.40;;;;;;6205902;28;86068;-61
2021/12/19 05:15:28;;;;;;;5.82;5.32;;;22.00;71.30;;;;;;6204793;28;87142;-61
2021/12/19 05:18:34;;;;;;;5.93;5.32;;;22.10;71.30;;;;;;6205608;28;88949;-61
2021/12/19 05:21:39;;;;;;;6.00;5.40;;;22.10;71.20;;;;;;6188227;28;89126;-61
2021/12/19 05:24:48;;;;;;;5.75;5.13;;;22.20;71.20;;;;;;6187802;28;90636;-61
2021/12/19 05:27:52;;;;;;;5.47;4.95;;;22.10;71.10;;;;;;6193929;28;89564;-60
2021/12/19 05:30:56;;;;;;;5.03;4.63;;;22.10;71.10;;;;;;6190107;28;88950;-61
2021/12/19 05:33:58;;;;;;;5.28;4.78;;;22.10;71.10;;;;;;6206860;28;88374;-61
2021/12/19 05:47:02;;;;;;;4.80;4.40;;;22.20;71.10;;;;;;6213563;28;87359;-61
2021/12/19 05:50:04;;;;;;;4.88;4.47;;;22.20;71.10;;;;;;6212055;28;87760;-61
2021/12/19 05:53:07;;;;;;;5.20;4.53;;;22.30;71.20;;;;;;6192533;28;89115;-61
2021/12/19 05:56:09;;;;;;;5.15;4.38;;;22.30;71.20;;;;;;6205078;28;89099;-60
2021/12/19 05:59:11;;;;;;;4.60;4.20;;;22.30;71.10;;;;;;6206285;28;89421;-61
2021/12/19 06:02:15;;;;;;;4.75;4.35;;;22.30;71.10;;;;;;6194338;28;88180;-61
2021/12/19 06:05:17;;;;;;;4.75;4.32;;;22.30;71.20;;;;;;6205193;28;88421;-61
2021/12/19 06:08:19;;;;;;;5.43;4.25;;;22.30;71.10;;;;;;6215870;28;90315;-61
2021/12/19 06:11:21;;;;;;;4.70;4.30;;;22.30;71.10;;;;;;6207357;28;88736;-61
2021/12/19 06:14:23;;;;;;;5.10;4.60;;;22.30;71.10;;;;;;6194899;28;90001;-61
2021/12/19 06:17:27;;;;;;;4.50;4.10;;;22.30;71.10;;;;;;6208843;28;89618;-61
2021/12/19 06:20:31;;;;;;;4.63;4.22;;;22.30;71.10;;;;;;6210580;28;86866;-61
2021/12/19 06:23:33;;;;;;;5.00;4.15;;;22.30;71.10;;;;;;6211145;28;88096;-61
2021/12/19 06:26:36;;;;;;;4.25;3.90;;;22.30;71.10;;;;;;6211232;28;89292;-61
2021/12/19 06:29:38;;;;;;;4.40;4.00;;;22.30;71.10;;;;;;6199615;28;89439;-60
2021/12/19 06:32:42;;;;;;;5.55;4.00;;;22.40;71.10;;;;;;6207400;28;89378;-61
2021/12/19 06:35:44;;;;;;;4.28;3.88;;;22.30;71.00;;;;;;6209592;28;88471;-61
2021/12/19 06:38:46;;;;;;;4.35;3.95;;;22.30;71.00;;;;;;6209481;28;89136;-61
2021/12/19 06:41:48;;;;;;;4.50;4.10;;;22.40;71.10;;;;;;6208702;28;88286;-61
2021/12/19 06:44:50;;;;;;;4.47;3.65;;;22.40;71.10;;;;;;6209895;28;90147;-61
2021/12/19 06:47:54;;;;;;;4.22;3.85;;;22.40;71.10;;;;;;6194848;28;87956;-61
2021/12/19 06:50:57;;;;;;;4.20;3.80;;;22.40;71.10;;;;;;6208329;28;90004;-61
2021/12/19 06:53:59;;;;;;;4.18;3.80;;;22.40;71.10;;;;;;6200926;28;89186;-61
2021/12/19 06:57:01;;;;;;;4.05;3.75;;;22.40;71.10;;;;;;6212720;28;88863;-61
2021/12/19 07:00:05;;;;;;;4.32;3.80;;;22.40;71.10;;;;;;6207578;28;89009;-60
2021/12/19 07:03:10;;;;;;;4.45;3.60;;;22.50;71.10;;;;;;6198351;28;89105;-61
2021/12/19 07:06:12;;;;;;;3.92;3.53;;;22.40;71.10;;;;;;6197499;28;88699;-61
2021/12/19 07:09:14;;;;;;;3.70;3.40;;;22.40;71.10;;;;;;6215925;28;88035;-61
2021/12/19 07:12:17;;;;;;;3.60;3.30;;;22.40;71.10;;;;;;6212159;28;88925;-61
2021/12/19 07:15:19;;;;;;;4.28;3.60;;;22.50;71.20;;;;;;6200787;28;90043;-61
2021/12/19 07:18:23;;;;;;;3.80;3.50;;;22.50;71.10;;;;;;6212200;28;88278;-60
2021/12/19 07:21:26;;;;;;;5.22;3.53;;;22.50;71.10;;;;;;6190290;28;89475;-61
2021/12/19 07:24:28;;;;;;;4.55;3.63;;;22.50;71.00;;;;;;6192732;28;88481;-61
2021/12/19 07:27:30;;;;;;;4.55;3.70;;;22.40;70.70;;;;;;6200603;28;89610;-61
2021/12/19 07:30:35;;;;;;;4.22;3.63;;;22.50;70.60;;;;;;6202162;28;89324;-61
2021/12/19 07:33:38;;;;;;;3.97;3.58;;;22.50;70.50;;;;;;6197577;28;87126;-61
2021/12/19 07:36:45;;;;;;;4.28;3.88;;;22.50;70.30;;;;;;6185665;28;88041;-61
2021/12/19 07:39:55;;;;;;;6.28;4.80;;;22.50;70.20;;;;;;6182815;28;88019;-61
2021/12/19 07:42:59;;;;;;;6.55;5.78;;;22.50;68.10;;;;;;6191541;28;88981;-62
2021/12/19 07:46:01;;;;;;;6.70;5.70;;;22.50;66.10;;;;;;6199796;28;89037;-62
2021/12/19 07:49:05;;;;;;;6.00;5.47;;;22.50;64.00;;;;;;6185119;28;88994;-61
2021/12/19 07:52:07;;;;;;;6.00;5.40;;;22.50;62.70;;;;;;6185609;28;87949;-60
2021/12/19 07:55:10;;;;;;;6.43;5.65;;;22.50;62.60;;;;;;6207230;28;89031;-60
2021/12/19 07:58:12;;;;;;;6.38;5.50;;;22.50;64.00;;;;;;6207982;28;89064;-61
2021/12/19 08:01:14;;;;;;;6.57;5.95;;;22.50;63.20;;;;;;6183170;28;89067;-61
2021/12/19 08:04:17;;;;;;;6.75;6.05;;;22.40;61.20;;;;;;6209499;28;88854;-61
2021/12/19 08:07:23;;;;;;;6.65;6.05;;;22.40;60.10;;;;;;6208405;28;88685;-61
2021/12/19 08:13:45;;;;;;;6.72;6.10;;;22.40;59.20;;;;;;6209239;28;87421;-61
2021/12/19 08:16:47;;;;;;;6.68;6.03;;;22.40;58.90;;;;;;6206066;28;90357;-61
2021/12/19 08:19:51;;;;;;;6.70;6.03;;;22.40;58.60;;;;;;6207677;28;87957;-61
2021/12/19 08:22:53;;;;;;;6.60;5.50;;;22.40;58.30;;;;;;6206896;28;88220;-61
2021/12/19 08:25:55;;;;;;;6.40;5.75;;;22.40;58.60;;;;;;6196532;28;87900;-61
2021/12/19 08:28:57;;;;;;;10.98;7.35;;;22.40;58.30;;;;;;6195998;28;89110;-61
2021/12/19 08:31:59;;;;;;;9.82;8.82;;;22.30;58.90;;;;;;6193816;28;87987;-62
2021/12/19 08:35:05;;;;;;;9.18;8.13;;;22.30;58.00;;;;;;6197724;28;87985;-60
2021/12/19 08:38:07;;;;;;;8.88;7.97;;;22.10;56.30;;;;;;6206137;28;88274;-60
2021/12/19 08:41:09;;;;;;;8.30;7.50;;;22.00;57.10;;;;;;6197112;28;89091;-61
2021/12/19 08:44:11;;;;;;;9.23;6.78;;;22.00;57.50;;;;;;6183615;28;88194;-60
2021/12/19 08:47:14;;;;;;;6.55;5.78;;;22.00;58.60;;;;;;6209737;28;90043;-59
2021/12/19 08:50:18;;;;;;;6.00;5.28;;;22.00;59.30;;;;;;6183233;28;89267;-61
2021/12/19 08:53:20;;;;;;;5.25;4.70;;;22.10;60.60;;;;;;6190323;28;88926;-60
2021/12/19 08:56:22;;;;;;;6.05;4.95;;;22.10;62.80;;;;;;6206474;28;89016;-61
2021/12/19 08:59:26;;;;;;;5.65;4.82;;;22.10;65.10;;;;;;6207132;28;90468;-60
2021/12/19 09:02:28;;;;;;;5.25;4.50;;;22.10;64.40;;;;;;6205309;28;88523;-60
2021/12/19 09:05:32;;;;;;;5.18;4.30;;;22.20;64.50;;;;;;6204980;28;89108;-61
2021/12/19 09:08:34;;;;;;;5.65;4.40;;;22.20;64.40;;;;;;6207509;28;87348;-60
2021/12/19 09:11:36;;;;;;;8.05;5.00;;;22.20;64.50;;;;;;6192275;28;89304;-60
2021/12/19 09:14:38;;;;;;;6.90;4.75;;;22.30;65.40;;;;;;6193956;28;89699;-59
2021/12/19 09:17:40;;;;;;;7.55;4.43;;;22.30;65.30;;;;;;6205110;28;89920;-60
2021/12/19 09:20:44;;;;;;;7.38;4.88;;;22.30;67.80;;;;;;6204838;28;89133;-60
2021/12/19 09:23:46;;;;;;;7.93;5.18;;;22.30;67.40;;;;;;6204506;28;89407;-60
2021/12/19 09:26:48;;;;;;;7.03;5.30;;;22.30;66.80;;;;;;6203592;28;89514;-60
2021/12/19 09:29:50;;;;;;;6.03;5.00;;;22.30;68.10;;;;;;6195619;28;89586;-60
2021/12/19 09:32:52;;;;;;;6.63;5.45;;;22.30;68.40;;;;;;6207073;28;89112;-59
2021/12/19 09:35:57;;;;;;;6.00;4.93;;;22.30;67.60;;;;;;6207094;28;89654;-60
2021/12/19 09:38:59;;;;;;;6.55;5.32;;;22.40;67.90;;;;;;6201506;28;88540;-61
2021/12/19 09:42:09;;;;;;;7.18;5.10;;;22.50;69.10;;;;;;6198583;28;89383;-60
2021/12/19 09:45:11;;;;;;;7.15;5.40;;;22.50;69.60;;;;;;6197076;28;87987;-60
2021/12/19 09:48:14;;;;;;;6.85;5.47;;;22.50;68.10;;;;;;6193566;28;88762;-61
2021/12/19 09:51:19;;;;;;;6.10;5.43;;;22.50;67.30;;;;;;6209431;28;89572;-61
2021/12/19 09:54:21;;;;;;;6.85;5.57;;;22.50;67.40;;;;;;6209821;28;89442;-61
2021/12/19 09:57:42;;;;;;;6.93;6.22;;;22.50;68.10;;;;;;6210254;28;89160;-59
2021/12/19 10:00:44;;;;;;;8.93;6.50;;;22.60;68.40;;;;;;6221236;28;89095;-61
2021/12/19 10:03:46;;;;;;;30.20;16.73;;;22.80;70.80;;;;;;6221484;28;87769;-61
2021/12/19 10:07:09;;;;;;;14.43;7.40;;;22.90;73.20;;;;;;6198655;28;89117;-61
2021/12/19 10:10:13;;;;;;;11.02;6.22;;;23.00;70.60;;;;;;6209414;28;88425;-61
2021/12/19 10:13:15;;;;;;;9.32;5.70;;;23.10;68.40;;;;;;6224343;28;88041;-60
2021/12/19 10:16:25;;;;;;;6.53;5.53;;;23.10;67.80;;;;;;6188559;28;89200;-61
2021/12/19 10:19:43;;;;;;;9.32;5.65;;;23.00;67.60;;;;;;6185486;28;89979;-61
2021/12/19 10:22:48;;;;;;;7.10;5.47;;;23.10;67.70;;;;;;6206423;28;89072;-61
2021/12/19 10:25:59;;;;;;;9.68;5.32;;;23.00;67.30;;;;;;6206955;28;89085;-60
2021/12/19 10:29:01;;;;;;;9.43;5.75;;;23.10;68.30;;;;;;6200887;28;87882;-61
2021/12/19 10:32:22;;;;;;;7.10;4.93;;;23.00;70.00;;;;;;6201527;28;89211;-61
2021/12/19 10:35:27;;;;;;;7.35;5.03;;;23.00;69.50;;;;;;6203206;28;88946;-60
2021/12/19 10:38:34;;;;;;;9.20;5.18;;;23.00;69.10;;;;;;6200929;28;89001;-61
2021/12/19 10:41:41;;;;;;;11.30;6.05;;;23.00;69.40;;;;;;6201174;28;89530;-61
2021/12/19 10:48:24;;;;;;;18.15;7.72;;;23.00;70.50;;;;;;6193821;28;87198;-61
2021/12/19 10:51:26;;;;;;;20.55;8.40;;;22.90;71.40;;;;;;6203833;28;89967;-61
2021/12/19 10:54:30;;;;;;;16.83;7.57;;;22.90;71.70;;;;;;6197575;28;89043;-61
2021/12/19 10:57:34;;;;;;;19.83;7.78;;;22.90;71.70;;;;;;6196296;28;89080;-62
2021/12/19 11:00:39;;;;;;;16.70;7.53;;;22.90;71.50;;;;;;6200172;28;89074;-61
2021/12/19 11:03:45;;;;;;;15.18;6.68;;;22.90;71.70;;;;;;6207098;28;87071;-61
2021/12/19 11:06:49;;;;;;;12.30;6.00;;;22.90;71.80;;;;;;6194417;28;90670;-62
2021/12/19 11:09:52;;;;;;;10.88;5.60;;;22.90;72.10;;;;;;6195377;28;89601;-62
2021/12/19 11:13:07;;;;;;;19.48;7.00;;;22.90;72.00;;;;;;6202929;28;87284;-61
2021/12/19 11:16:09;;;;;;;25.23;7.90;;;22.90;72.50;;;;;;6193535;28;88153;-61
2021/12/19 11:19:11;;;;;;;26.63;9.50;;;22.90;72.70;;;;;;6194072;28;88003;-61
2021/12/19 11:22:23;;;;;;;32.92;12.65;;;22.90;73.30;;;;;;6191987;28;90017;-61
2021/12/19 11:25:27;;;;;;;26.02;11.18;;;22.90;74.00;;;;;;6199609;28;89352;-61
2021/12/19 11:28:30;;;;;;;22.52;9.88;;;22.90;74.70;;;;;;6200219;28;87987;-61
2021/12/19 11:31:33;;;;;;;19.80;8.68;;;22.90;74.90;;;;;;6187365;28;89000;-60
2021/12/19 11:34:52;;;;;;;35.08;18.60;;;22.90;74.70;;;;;;6194321;28;88964;-60
2021/12/19 11:37:59;;;;;;;43.95;23.88;;;22.90;74.50;;;;;;6187549;28;89279;-61
2021/12/19 11:41:09;;;;;;;55.83;27.98;;;22.90;74.40;;;;;;6193512;28;87984;-60
2021/12/19 11:44:32;;;;;;;43.08;24.80;;;22.90;71.20;;;;;;6192683;28;88453;-60
2021/12/19 11:47:43;;;;;;;39.13;21.50;;;22.80;68.60;;;;;;6193345;28;89157;-60
2021/12/19 11:50:49;;;;;;;31.00;18.42;;;22.80;67.80;;;;;;6206783;28;89170;-60
2021/12/19 11:53:51;;;;;;;59.97;17.80;;;22.70;66.40;;;;;;6216813;28;89945;-60
2021/12/19 11:57:11;;;;;;;72.88;17.08;;;22.70;65.70;;;;;;6196760;28;88973;-60
2021/12/19 12:00:29;;;;;;;38.72;14.77;;;22.60;66.20;;;;;;6201725;28;89083;-60
2021/12/19 12:03:35;;;;;;;41.38;14.40;;;22.60;66.70;;;;;;6181403;28;89210;-60
2021/12/19 12:06:40;;;;;;;32.05;12.50;;;22.60;66.10;;;;;;6204820;28;89080;-59
2021/12/19 12:09:56;;;;;;;20.67;11.77;;;22.60;65.60;;;;;;6205622;28;88027;-60
2021/12/19 12:13:00;;;;;;;22.42;11.02;;;22.60;63.90;;;;;;6204988;28;89092;-60
2021/12/19 12:16:37;;;;;;;18.40;10.55;;;22.60;65.70;;;;;;6206424;28;88444;-60
2021/12/19 12:19:41;;;;;;;13.35;9.30;;;22.60;64.10;;;;;;6187365;28;88739;-60
2021/12/19 12:23:08;;;;;;;14.00;9.48;;;22.60;63.20;;;;;;6195677;28;89397;-60
2021/12/19 12:26:24;;;;;;;11.85;9.40;;;22.60;62.80;;;;;;6193788;28;90322;-61
2021/12/19 12:29:28;;;;;;;13.02;9.95;;;22.60;62.70;;;;;;6206094;28;88750;-62
2021/12/19 12:32:30;;;;;;;11.85;8.25;;;22.50;69.30;;;;;;6203400;28;89104;-62
2021/12/19 12:35:36;;;;;;;12.13;8.05;;;22.50;66.10;;;;;;6205897;28;88151;-60
2021/12/19 12:38:38;;;;;;;10.20;7.30;;;22.50;66.90;;;;;;6206902;28;89068;-60
2021/12/19 12:41:51;;;;;;;9.07;7.13;;;22.50;66.70;;;;;;6193555;28;89213;-60
2021/12/19 12:45:03;;;;;;;9.52;7.22;;;22.40;66.80;;;;;;6189359;28;88267;-61
2021/12/19 12:48:05;;;;;;;8.00;6.80;;;22.40;66.80;;;;;;6197353;28;89116;-60
2021/12/19 12:51:10;;;;;;;8.02;6.20;;;22.40;67.10;;;;;;6210775;28;89073;-60
2021/12/19 12:54:17;;;;;;;7.28;6.15;;;22.40;67.60;;;;;;6219573;28;88658;-61
2021/12/19 12:57:21;;;;;;;6.75;5.60;;;22.40;67.50;;;;;;6214610;28;89965;-60
2021/12/19 13:00:26;;;;;;;7.50;5.63;;;22.40;67.60;;;;;;6194829;28;89077;-60
2021/12/19 13:03:30;;;;;;;7.72;6.20;;;22.40;67.70;;;;;;6195651;28;89186;-60
2021/12/19 13:06:45;;;;;;;7.72;6.15;;;22.40;67.80;;;;;;6209588;28;89200;-60
2021/12/19 13:09:49;;;;;;;6.32;5.70;;;22.40;67.40;;;;;;6194856;28;89078;-60
2021/12/19 13:12:51;;;;;;;7.57;5.43;;;22.40;67.00;;;;;;6186042;28;89536;-61
2021/12/19 13:16:04;;;;;;;6.72;5.45;;;22.40;67.60;;;;;;6197873;28;88993;-61
2021/12/19 13:19:06;;;;;;;7.22;5.20;;;22.40;68.40;;;;;;6206767;28;88359;-60
2021/12/19 13:22:10;;;;;;;7.28;5.00;;;22.40;68.90;;;;;;6191008;28;89108;-60
2021/12/19 13:25:15;;;;;;;7.97;5.50;;;22.40;68.60;;;;;;6196405;28;89057;-60
2021/12/19 13:28:20;;;;;;;8.82;7.03;;;22.40;68.10;;;;;;6204630;28;90072;-60
2021/12/19 13:31:24;;;;;;;8.50;6.88;;;22.40;67.70;;;;;;6206853;28;89095;-61
2021/12/19 13:34:38;;;;;;;7.95;6.95;;;22.40;67.70;;;;;;6202625;28;88633;-60
2021/12/19 13:37:53;;;;;;;7.50;6.78;;;22.40;66.60;;;;;;6213068;28;87801;-61
2021/12/19 13:40:58;;;;;;;8.00;5.90;;;22.30;67.20;;;;;;6208721;28;87977;-61
2021/12/19 13:43:59;;;;;;;6.15;5.50;;;22.40;67.80;;;;;;6206565;28;89266;-61
2021/12/19 13:47:12;;;;;;;5.45;4.95;;;22.40;67.80;;;;;;6208062;28;89264;-61
2021/12/19 13:50:14;;;;;;;6.13;4.65;;;22.40;67.60;;;;;;6207388;28;87258;-61
2021/12/19 13:53:18;;;;;;;6.55;5.00;;;22.40;67.90;;;;;;6199544;28;88990;-61
2021/12/19 13:56:21;;;;;;;6.45;4.70;;;22.50;67.90;;;;;;6195691;28;89301;-60
2021/12/19 13:59:24;;;;;;;8.45;4.63;;;22.50;68.40;;;;;;6218483;28;90081;-62
2021/12/19 14:02:28;;;;;;;6.03;4.00;;;22.50;68.70;;;;;;6181302;28;87788;-61
2021/12/19 14:05:31;;;;;;;4.97;3.97;;;22.50;68.80;;;;;;6183265;28;90039;-61
2021/12/19 14:08:35;;;;;;;6.03;4.00;;;22.60;69.20;;;;;;6204242;28;88960;-61
2021/12/19 14:11:40;;;;;;;5.13;4.00;;;22.60;69.40;;;;;;6207299;28;89073;-61
2021/12/19 14:14:42;;;;;;;4.63;3.90;;;22.60;69.80;;;;;;6198508;28;88290;-61
2021/12/19 14:17:46;;;;;;;7.63;3.70;;;22.60;69.80;;;;;;6193835;28;89068;-61
2021/12/19 14:20:48;;;;;;;4.20;3.53;;;22.60;69.70;;;;;;6206304;28;88674;-61
2021/12/19 14:23:50;;;;;;;4.57;3.75;;;22.60;69.80;;;;;;6205219;28;89089;-61
2021/12/19 14:27:07;;;;;;;3.70;3.40;;;22.60;69.70;;;;;;6204816;28;89447;-61
2021/12/19 14:30:11;;;;;;;4.00;3.30;;;22.70;69.80;;;;;;6199387;28;89936;-61
2021/12/19 14:33:29;;;;;;;4.90;3.50;;;22.70;69.80;;;;;;6193941;28;87991;-61
2021/12/19 14:36:31;;;;;;;3.47;3.15;;;22.70;69.80;;;;;;6199731;28;89111;-61
2021/12/19 14:39:33;;;;;;;6.03;3.83;;;22.70;69.80;;;;;;6186444;28;89046;-61
2021/12/19 14:42:37;;;;;;;5.80;3.47;;;22.70;70.00;;;;;;6207397;28;89061;-62
2021/12/19 14:45:45;;;;;;;3.95;3.20;;;22.70;70.50;;;;;;6220315;28;89090;-62
2021/12/19 14:48:48;;;;;;;4.55;3.22;;;22.70;70.70;;;;;;6216996;28;87965;-62
2021/12/19 14:51:58;;;;;;;5.80;3.60;;;22.70;70.80;;;;;;6200133;28;88545;-63
2021/12/19 14:55:09;;;;;;;3.70;3.40;;;22.80;71.30;;;;;;6201579;28;89129;-62
2021/12/19 14:58:13;;;;;;;5.72;3.47;;;22.80;71.50;;;;;;6203759;28;89078;-62
2021/12/19 15:01:17;;;;;;;5.90;3.22;;;22.80;71.50;;;;;;6215899;28;90272;-62
2021/12/19 15:04:23;;;;;;;6.57;3.13;;;22.80;71.40;;;;;;6207643;28;89103;-61
2021/12/19 15:07:26;;;;;;;67.30;40.15;;;22.80;71.50;;;;;;6203018;28;89135;-62
2021/12/19 15:10:28;;;;;;;95.22;52.67;;;22.90;71.60;;;;;;6202297;28;88868;-62
2021/12/19 15:13:31;;;;;;;95.28;53.33;;;22.90;71.20;;;;;;6209032;28;89390;-62
2021/12/19 15:16:34;;;;;;;85.13;48.05;;;22.90;70.90;;;;;;6193790;28;89439;-60
2021/12/19 15:19:37;;;;;;;64.32;38.60;;;22.90;70.70;;;;;;6208633;28;89059;-60
2021/12/19 15:22:41;;;;;;;68.05;37.08;;;22.90;70.70;;;;;;6208192;28;87255;-60
2021/12/19 15:25:45;;;;;;;53.80;32.30;;;22.90;70.50;;;;;;6207242;28;89164;-60
2021/12/19 15:28:49;;;;;;;52.00;29.27;;;22.90;70.30;;;;;;6207058;28;89093;-61
2021/12/19 15:31:52;;;;;;;47.67;26.92;;;22.90;70.40;;;;;;6220659;28;90434;-60
2021/12/19 15:34:55;;;;;;;42.47;24.08;;;22.90;70.20;;;;;;6192700;28;87929;-59
2021/12/19 15:37:57;;;;;;;40.60;22.88;;;22.90;70.30;;;;;;6199009;28;87958;-59
2021/12/19 15:40:59;;;;;;;35.42;22.23;;;22.90;70.30;;;;;;6192604;28;88005;-59
2021/12/19 15:44:02;;;;;;;33.72;21.15;;;22.90;70.50;;;;;;6195713;28;89077;-59
2021/12/19 15:47:04;;;;;;;31.48;20.05;;;22.90;70.60;;;;;;6184751;28;88996;-59
2021/12/19 15:50:08;;;;;;;31.30;19.83;;;22.90;70.70;;;;;;6198236;28;89351;-60
2021/12/19 15:53:10;;;;;;;32.00;19.50;;;22.90;71.00;;;;;;6187117;28;88157;-60
2021/12/19 15:56:12;;;;;;;28.05;18.58;;;22.90;71.10;;;;;;6193196;28;88173;-60
2021/12/19 15:59:14;;;;;;;26.77;17.48;;;22.90;71.10;;;;;;6189688;28;89369;-60
2021/12/19 16:02:18;;;;;;;28.85;17.15;;;22.90;71.10;;;;;;6196894;28;89993;-60
2021/12/19 16:05:23;;;;;;;29.08;17.63;;;22.90;71.10;;;;;;6198389;28;89060;-60
2021/12/19 16:08:25;;;;;;;26.05;16.08;;;22.90;71.20;;;;;;6184676;28;89341;-60
2021/12/19 16:11:27;;;;;;;25.70;16.15;;;22.90;71.30;;;;;;6190684;28;89130;-60
2021/12/19 16:14:29;;;;;;;20.52;15.13;;;23.00;71.30;;;;;;6200875;28;87849;-59
2021/12/19 16:17:31;;;;;;;23.50;15.15;;;22.90;71.30;;;;;;6199599;28;89303;-59
2021/12/19 16:20:35;;;;;;;21.88;14.38;;;22.90;71.30;;;;;;6189213;28;89370;-60
2021/12/19 16:23:37;;;;;;;20.58;14.68;;;23.00;71.50;;;;;;6197463;28;88361;-60
2021/12/19 16:26:39;;;;;;;21.42;14.05;;;23.00;71.40;;;;;;6213673;28;89202;-59
2021/12/19 16:29:41;;;;;;;22.05;14.27;;;23.00;71.60;;;;;;6205893;28;88983;-59
2021/12/19 16:32:43;;;;;;;20.02;13.43;;;23.00;71.80;;;;;;6193309;28;90091;-59
2021/12/19 16:35:47;;;;;;;20.50;13.45;;;23.00;71.80;;;;;;6214025;28;88998;-61
2021/12/19 16:38:49;;;;;;;18.80;12.45;;;23.00;71.80;;;;;;6199971;28;89333;-62
2021/12/19 16:42:02;;;;;;;17.85;11.90;;;23.00;71.80;;;;;;6192436;28;89081;-61
2021/12/19 16:45:04;;;;;;;16.33;11.85;;;23.00;71.60;;;;;;6193391;28;92014;-61
2021/12/19 16:48:06;;;;;;;15.95;11.45;;;22.90;71.10;;;;;;6199454;28;89021;-61
2021/12/19 16:51:10;;;;;;;19.38;10.73;;;22.90;70.90;;;;;;6183061;28;89363;-61
2021/12/19 16:54:13;;;;;;;14.55;10.57;;;22.90;70.70;;;;;;6200472;28;88713;-61
2021/12/19 16:57:16;;;;;;;15.00;10.15;;;23.00;70.60;;;;;;6202581;28;89134;-60
2021/12/19 17:00:19;;;;;;;14.18;10.10;;;22.90;70.50;;;;;;6192538;28;88625;-63
2021/12/19 17:03:22;;;;;;;12.63;9.48;;;23.00;70.30;;;;;;6195042;28;89002;-63
2021/12/19 17:06:26;;;;;;;12.35;8.95;;;23.00;70.10;;;;;;6207565;28;89034;-59